createdAt,value
2023-03-01T00:00:53.084Z,24.10
2023-03-01T00:03:30.794Z,25.52
2023-03-01T00:06:04.307Z,22.67
2023-03-01T00:08:37.460Z,22.00
2023-03-01T00:11:13.693Z,21.63
2023-03-01T00:13:47.365Z,22.95
2023-03-01T00:16:21.403Z,25.27
2023-03-01T00:18:55.713Z,22.15
2023-03-01T00:21:28.908Z,25.25
2023-03-01T00:24:02.470Z,23.23
2023-03-01T00:26:35.224Z,25.77
2023-03-01T00:29:08.222Z,27.27
2023-03-01T00:31:43.775Z,27.45
2023-03-01T00:34:16.709Z,25.02
2023-03-01T00:36:49.281Z,23.98
2023-03-01T00:39:22.328Z,28.05
2023-03-01T00:41:55.037Z,26.67
2023-03-01T00:44:28.013Z,25.13
2023-03-01T00:47:00.553Z,27.73
2023-03-01T00:49:33.454Z,27.75
2023-03-01T00:52:06.145Z,25.77
2023-03-01T00:54:39.076Z,25.90
2023-03-01T00:57:11.635Z,25.90
2023-03-01T00:59:44.491Z,22.80
2023-03-01T01:02:17.072Z,24.73
2023-03-01T01:04:52.029Z,24.27
2023-03-01T01:07:24.569Z,25.02
2023-03-01T01:09:57.477Z,24.23
2023-03-01T01:12:30.003Z,25.35
2023-03-01T01:15:03.173Z,23.38
2023-03-01T01:17:35.730Z,25.35
2023-03-01T01:20:09.236Z,26.10
2023-03-01T01:22:42.503Z,28.10
2023-03-01T01:25:17.194Z,24.25
2023-03-01T01:27:49.941Z,23.98
2023-03-01T01:30:23.882Z,26.02
2023-03-01T01:32:58.199Z,27.13
2023-03-01T01:35:36.872Z,25.38
2023-03-01T01:38:09.882Z,25.70
2023-03-01T01:40:46.697Z,23.30
2023-03-01T01:43:25.222Z,28.02
2023-03-01T01:46:03.844Z,24.42
2023-03-01T01:48:41.971Z,25.85
2023-03-01T01:51:19.382Z,30.92
2023-03-01T01:53:54.473Z,27.92
2023-03-01T01:56:28.724Z,32.47
2023-03-01T01:59:02.824Z,30.73
2023-03-01T02:01:35.701Z,33.50
2023-03-01T02:04:09.670Z,32.67
2023-03-01T02:07:10.012Z,35.30
2023-03-01T02:09:51.176Z,36.70
2023-03-01T02:12:25.406Z,32.58
2023-03-01T02:14:57.988Z,36.90
2023-03-01T02:17:31.617Z,33.33
2023-03-01T02:20:22.721Z,31.77
2023-03-01T02:22:55.799Z,34.25
2023-03-01T02:25:34.276Z,33.30
2023-03-01T02:28:14.929Z,33.55
2023-03-01T02:31:08.819Z,32.97
2023-03-01T02:33:49.806Z,33.30
2023-03-01T02:36:26.202Z,32.92
2023-03-01T02:39:01.011Z,29.80
2023-03-01T02:41:37.042Z,30.70
2023-03-01T02:44:15.898Z,27.73
2023-03-01T02:46:51.195Z,29.13
2023-03-01T02:49:29.279Z,27.25
2023-03-01T02:52:17.449Z,33.40
2023-03-01T02:54:54.251Z,29.90
2023-03-01T02:57:28.993Z,34.70
2023-03-01T03:00:08.774Z,34.80
2023-03-01T03:02:42.374Z,33.25
2023-03-01T03:05:22.633Z,36.10
2023-03-01T03:07:59.525Z,34.70
2023-03-01T03:10:35.906Z,33.63
2023-03-01T03:13:13.807Z,33.60
2023-03-01T03:15:46.783Z,32.50
2023-03-01T03:18:20.120Z,34.72
2023-03-01T03:20:54.371Z,35.58
2023-03-01T03:23:27.181Z,30.30
2023-03-01T03:26:00.147Z,31.33
2023-03-01T03:28:33.500Z,32.35
2023-03-01T03:31:09.460Z,33.80
2023-03-01T03:33:49.455Z,29.85
2023-03-01T03:36:25.411Z,30.30
2023-03-01T03:38:58.107Z,27.38
2023-03-01T03:41:32.609Z,30.25
2023-03-01T03:44:06.575Z,30.13
2023-03-01T03:46:39.475Z,29.17
2023-03-01T03:49:17.001Z,28.58
2023-03-01T03:51:58.703Z,30.15
2023-03-01T03:57:12.746Z,26.42
2023-03-01T03:59:45.313Z,28.83
2023-03-01T04:02:23.668Z,26.70
2023-03-01T04:04:56.799Z,25.42
2023-03-01T04:07:29.722Z,25.70
2023-03-01T04:10:05.564Z,26.65
2023-03-01T04:12:47.269Z,25.08
2023-03-01T04:15:20.167Z,29.05
2023-03-01T04:17:54.148Z,25.73
2023-03-01T04:20:28.348Z,28.63
2023-03-01T04:23:19.896Z,27.65
2023-03-01T04:25:59.113Z,29.38
2023-03-01T04:28:37.167Z,26.63
2023-03-01T04:31:17.649Z,24.42
2023-03-01T04:33:53.487Z,29.45
2023-03-01T04:36:27.457Z,27.98
2023-03-01T04:39:02.035Z,23.60
2023-03-01T04:41:34.570Z,28.63
2023-03-01T04:44:08.418Z,26.13
2023-03-01T04:46:42.002Z,27.25
2023-03-01T04:49:20.157Z,30.65
2023-03-01T04:51:53.350Z,27.95
2023-03-01T04:54:26.390Z,35.17
2023-03-01T04:56:59.041Z,27.98
2023-03-01T04:59:32.013Z,31.02
2023-03-01T05:02:04.558Z,28.25
2023-03-01T05:04:37.484Z,26.02
2023-03-01T05:07:10.321Z,27.27
2023-03-01T05:09:43.183Z,26.35
2023-03-01T05:12:16.283Z,25.88
2023-03-01T05:14:49.287Z,24.95
2023-03-01T05:17:21.872Z,24.75
2023-03-01T05:19:56.946Z,27.52
2023-03-01T05:22:29.538Z,23.48
2023-03-01T05:25:02.702Z,29.40
2023-03-01T05:27:35.977Z,28.10
2023-03-01T05:30:15.161Z,30.48
2023-03-01T05:32:49.848Z,26.40
2023-03-01T05:35:23.308Z,28.17
2023-03-01T05:37:55.826Z,28.45
2023-03-01T05:40:28.789Z,26.60
2023-03-01T05:43:01.692Z,27.95
2023-03-01T05:45:36.776Z,28.30
2023-03-01T05:48:10.181Z,27.70
2023-03-01T05:50:44.408Z,29.52
2023-03-01T05:53:18.438Z,26.42
2023-03-01T05:55:52.627Z,39.90
2023-03-01T05:58:25.653Z,40.28
2023-03-01T06:00:59.421Z,31.23
2023-03-01T06:03:31.979Z,27.48
2023-03-01T06:06:05.057Z,31.33
2023-03-01T06:08:37.615Z,32.58
2023-03-01T06:11:10.566Z,37.35
2023-03-01T06:13:43.877Z,38.85
2023-03-01T06:16:16.985Z,40.00
2023-03-01T06:18:49.585Z,43.25
2023-03-01T06:21:22.553Z,38.35
2023-03-01T06:23:55.212Z,43.80
2023-03-01T06:26:28.172Z,37.20
2023-03-01T06:29:00.787Z,35.50
2023-03-01T06:31:33.736Z,39.13
2023-03-01T06:34:06.398Z,30.23
2023-03-01T06:36:39.300Z,27.08
2023-03-01T06:39:11.846Z,23.90
2023-03-01T06:41:45.200Z,22.63
2023-03-01T06:44:17.774Z,21.10
2023-03-01T06:46:50.838Z,19.70
2023-03-01T06:49:23.426Z,18.30
2023-03-01T06:51:56.487Z,21.17
2023-03-01T06:54:29.047Z,18.15
2023-03-01T06:57:01.935Z,20.67
2023-03-01T06:59:34.640Z,20.30
2023-03-01T07:02:07.541Z,19.70
2023-03-01T07:04:40.440Z,21.45
2023-03-01T07:07:13.446Z,21.65
2023-03-01T07:09:46.698Z,21.35
2023-03-01T07:12:19.617Z,21.27
2023-03-01T07:14:52.355Z,20.83
2023-03-01T07:17:25.251Z,22.10
2023-03-01T07:19:58.187Z,21.50
2023-03-01T07:22:31.109Z,21.80
2023-03-01T07:25:03.735Z,22.73
2023-03-01T07:27:36.658Z,25.60
2023-03-01T07:30:09.848Z,25.15
2023-03-01T07:32:43.331Z,24.42
2023-03-01T07:35:16.318Z,20.90
2023-03-01T07:37:49.186Z,22.63
2023-03-01T07:40:21.731Z,21.33
2023-03-01T07:42:58.233Z,21.23
2023-03-01T07:45:31.155Z,24.77
2023-03-01T07:48:04.225Z,23.83
2023-03-01T07:50:36.766Z,24.75
2023-03-01T07:53:10.420Z,26.17
2023-03-01T07:55:43.077Z,25.52
2023-03-01T07:58:16.010Z,27.67
2023-03-01T08:00:48.701Z,32.47
2023-03-01T08:03:21.662Z,24.92
2023-03-01T08:05:54.220Z,24.17
2023-03-01T08:08:27.361Z,22.70
2023-03-01T08:11:00.937Z,22.02
2023-03-01T08:13:34.371Z,22.05
2023-03-01T08:16:12.801Z,20.70
2023-03-01T08:18:45.683Z,20.63
2023-03-01T08:21:18.754Z,21.20
2023-03-01T08:23:51.638Z,17.95
2023-03-01T08:26:24.750Z,19.55
2023-03-01T08:28:57.868Z,19.30
2023-03-01T08:31:33.931Z,19.15
2023-03-01T08:34:08.530Z,19.38
2023-03-01T08:36:42.321Z,17.63
2023-03-01T08:39:16.678Z,21.83
2023-03-01T08:41:49.373Z,21.38
2023-03-01T08:44:22.521Z,19.00
2023-03-01T08:46:56.910Z,22.48
2023-03-01T08:49:29.837Z,22.42
2023-03-01T08:52:03.614Z,18.58
2023-03-01T08:54:36.615Z,18.17
2023-03-01T08:57:10.954Z,20.83
2023-03-01T08:59:44.258Z,20.23
2023-03-01T09:02:18.838Z,21.75
2023-03-01T09:04:51.768Z,18.70
2023-03-01T09:07:29.411Z,20.23
2023-03-01T09:10:02.359Z,20.77
2023-03-01T09:12:34.993Z,21.30
2023-03-01T09:15:08.232Z,17.23
2023-03-01T09:17:40.769Z,20.98
2023-03-01T09:20:13.702Z,21.90
2023-03-01T09:22:46.289Z,18.73
2023-03-01T09:25:19.207Z,18.55
2023-03-01T09:27:55.214Z,15.38
2023-03-01T09:30:28.225Z,18.95
2023-03-01T09:33:00.970Z,14.45
2023-03-01T09:35:33.918Z,16.65
2023-03-01T09:38:06.440Z,18.65
2023-03-01T09:40:43.837Z,15.05
2023-03-01T09:43:19.157Z,17.25
2023-03-01T09:45:54.674Z,17.85
2023-03-01T09:48:28.705Z,20.20
2023-03-01T09:51:03.809Z,20.90
2023-03-01T09:53:36.619Z,17.00
2023-03-01T09:56:28.015Z,14.35
2023-03-01T09:59:06.721Z,16.27
2023-03-01T10:01:47.035Z,13.38
2023-03-01T10:04:27.563Z,10.60
2023-03-01T10:07:12.697Z,12.20
2023-03-01T10:09:46.627Z,10.73
2023-03-01T10:12:22.039Z,7.32
2023-03-01T10:15:12.073Z,8.63
2023-03-01T10:17:48.242Z,7.70
2023-03-01T10:20:28.037Z,9.35
2023-03-01T10:23:01.530Z,7.30
2023-03-01T10:25:36.811Z,8.60
2023-03-01T10:28:32.705Z,8.88
2023-03-01T10:31:05.553Z,8.25
2023-03-01T10:33:41.327Z,9.00
2023-03-01T10:36:13.904Z,8.88
2023-03-01T10:38:53.628Z,9.05
2023-03-01T10:41:27.925Z,9.15
2023-03-01T10:44:01.614Z,9.00
2023-03-01T10:46:35.652Z,9.15
2023-03-01T10:49:13.649Z,11.18
2023-03-01T10:51:47.628Z,10.63
2023-03-01T10:54:26.988Z,12.23
2023-03-01T10:57:01.332Z,11.45
2023-03-01T10:59:38.185Z,10.23
2023-03-01T11:02:23.497Z,9.35
2023-03-01T11:04:59.703Z,11.13
2023-03-01T11:07:32.376Z,12.52
2023-03-01T11:10:12.738Z,10.02
2023-03-01T11:12:45.242Z,10.90
2023-03-01T11:15:23.865Z,13.77
2023-03-01T11:18:09.029Z,10.43
2023-03-01T11:20:46.075Z,11.13
2023-03-01T11:23:18.840Z,10.40
2023-03-01T11:26:04.271Z,12.07
2023-03-01T11:28:39.167Z,10.43
2023-03-01T11:31:16.788Z,11.43
2023-03-01T11:33:59.039Z,13.13
2023-03-01T11:36:35.170Z,12.30
2023-03-01T11:39:31.022Z,10.35
2023-03-01T11:42:18.434Z,12.35
2023-03-01T11:44:53.941Z,10.48
2023-03-01T11:47:49.930Z,10.70
2023-03-01T11:50:48.633Z,11.50
2023-03-01T11:53:25.251Z,11.25
2023-03-01T11:56:12.894Z,12.27
2023-03-01T11:59:07.704Z,11.70
2023-03-01T12:01:43.352Z,11.32
2023-03-01T12:04:44.164Z,10.65
2023-03-01T12:07:16.749Z,12.30
2023-03-01T12:09:49.617Z,10.00
2023-03-01T12:12:31.054Z,9.40
2023-03-01T12:15:17.209Z,7.60
2023-03-01T12:18:12.756Z,9.18
2023-03-01T12:20:48.679Z,9.15
2023-03-01T12:23:27.007Z,10.50
2023-03-01T12:26:14.330Z,9.32
2023-03-01T12:28:50.023Z,7.88
2023-03-01T12:31:29.569Z,8.68
2023-03-01T12:34:09.016Z,8.90
2023-03-01T12:36:57.289Z,10.18
2023-03-01T12:39:42.367Z,9.10
2023-03-01T12:42:37.817Z,11.13
2023-03-01T12:45:13.361Z,10.02
2023-03-01T12:47:59.570Z,8.73
2023-03-01T12:50:38.207Z,9.23
2023-03-01T12:53:25.504Z,9.68
2023-03-01T12:56:01.893Z,8.82
2023-03-01T12:58:50.334Z,11.43
2023-03-01T13:01:35.510Z,9.43
2023-03-01T13:04:16.127Z,9.88
2023-03-01T13:07:08.926Z,8.25
2023-03-01T13:10:02.866Z,8.98
2023-03-01T13:12:45.086Z,13.57
2023-03-01T13:15:28.895Z,11.02
2023-03-01T13:18:25.574Z,7.53
2023-03-01T13:21:00.164Z,9.10
2023-03-01T13:23:37.480Z,9.50
2023-03-01T13:26:15.120Z,8.10
2023-03-01T13:28:50.376Z,9.13
2023-03-01T13:31:26.420Z,10.45
2023-03-01T13:33:59.923Z,9.77
2023-03-01T13:36:33.900Z,8.88
2023-03-01T13:39:24.744Z,10.20
2023-03-01T13:41:58.858Z,10.77
2023-03-01T13:44:54.280Z,8.63
2023-03-01T13:47:28.319Z,10.55
2023-03-01T13:50:02.495Z,8.82
2023-03-01T13:52:48.791Z,10.77
2023-03-01T13:55:22.093Z,9.60
2023-03-01T13:57:57.082Z,8.15
2023-03-01T14:00:31.666Z,8.75
2023-03-01T14:03:06.615Z,9.38
2023-03-01T14:05:41.083Z,10.95
2023-03-01T14:08:21.179Z,10.73
2023-03-01T14:10:59.633Z,7.85
2023-03-01T14:13:47.872Z,9.88
2023-03-01T14:16:46.799Z,8.57
2023-03-01T14:19:32.624Z,10.27
2023-03-01T14:22:06.233Z,10.80
2023-03-01T14:24:41.522Z,9.07
2023-03-01T14:27:14.885Z,10.75
2023-03-01T14:29:58.358Z,9.15
2023-03-01T14:32:32.001Z,8.05
2023-03-01T14:35:20.175Z,8.35
2023-03-01T14:37:53.021Z,10.45
2023-03-01T14:40:31.112Z,9.05
2023-03-01T14:43:09.583Z,11.15
2023-03-01T14:45:48.197Z,11.60
2023-03-01T14:48:21.145Z,10.68
2023-03-01T14:50:54.749Z,9.05
2023-03-01T14:53:29.074Z,7.65
2023-03-01T14:56:03.753Z,9.70
2023-03-01T14:58:36.600Z,9.27
2023-03-01T15:01:14.985Z,13.90
2023-03-01T15:03:51.018Z,11.55
2023-03-01T15:06:24.556Z,13.40
2023-03-01T15:08:58.272Z,14.52
2023-03-01T15:11:32.558Z,16.38
2023-03-01T15:14:25.103Z,11.07
2023-03-01T15:16:58.138Z,18.33
2023-03-01T15:19:31.625Z,10.77
2023-03-01T15:22:13.346Z,8.95
2023-03-01T15:24:52.080Z,9.23
2023-03-01T15:27:25.975Z,9.27
2023-03-01T15:30:03.559Z,8.43
2023-03-01T15:32:41.278Z,7.95
2023-03-01T15:35:32.893Z,8.10
2023-03-01T15:40:50.239Z,7.35
2023-03-01T15:43:42.877Z,8.80
2023-03-01T15:46:26.373Z,8.52
2023-03-01T15:49:03.618Z,7.47
2023-03-01T15:51:37.587Z,7.80
2023-03-01T15:54:17.533Z,9.95
2023-03-01T15:56:50.134Z,11.35
2023-03-01T15:59:23.962Z,10.88
2023-03-01T16:01:56.467Z,11.75
2023-03-01T16:04:29.462Z,11.45
2023-03-01T16:07:02.383Z,8.93
2023-03-01T16:09:35.241Z,9.43
2023-03-01T16:12:14.265Z,10.18
2023-03-01T16:14:47.209Z,9.63
2023-03-01T16:17:19.734Z,11.23
2023-03-01T16:19:52.701Z,10.00
2023-03-01T16:22:26.696Z,10.13
2023-03-01T16:24:59.589Z,11.38
2023-03-01T16:27:32.056Z,11.23
2023-03-01T16:30:05.814Z,13.20
2023-03-01T16:32:42.257Z,13.20
2023-03-01T16:35:17.277Z,13.48
2023-03-01T16:37:50.202Z,12.38
2023-03-01T16:40:24.572Z,10.27
2023-03-01T16:43:00.731Z,39.70
2023-03-01T16:45:35.487Z,34.75
2023-03-01T16:48:08.040Z,14.40
2023-03-01T16:50:41.367Z,15.00
2023-03-01T16:53:14.736Z,12.50
2023-03-01T16:55:53.935Z,9.77
2023-03-01T16:58:26.724Z,10.43
2023-03-01T17:01:05.071Z,10.75
2023-03-01T17:03:37.753Z,9.27
2023-03-01T17:06:12.383Z,10.85
2023-03-01T17:08:45.149Z,11.98
2023-03-01T17:11:20.047Z,9.90
2023-03-01T17:13:52.838Z,11.60
2023-03-01T17:16:25.912Z,10.65
2023-03-01T17:18:58.460Z,9.95
2023-03-01T17:21:32.071Z,11.20
2023-03-01T17:24:04.934Z,9.48
2023-03-01T17:26:37.981Z,11.05
2023-03-01T17:29:10.641Z,11.32
2023-03-01T17:31:43.502Z,10.88
2023-03-01T17:34:16.867Z,11.25
2023-03-01T17:36:50.960Z,12.05
2023-03-01T17:39:30.853Z,11.95
2023-03-01T17:42:05.525Z,12.73
2023-03-01T17:44:38.212Z,15.82
2023-03-01T17:47:11.336Z,53.00
2023-03-01T17:49:43.893Z,77.47
2023-03-01T17:52:16.803Z,69.57
2023-03-01T17:54:49.497Z,54.03
2023-03-01T17:57:22.491Z,39.55
2023-03-01T18:00:04.212Z,30.85
2023-03-01T18:03:05.929Z,26.73
2023-03-01T18:09:20.820Z,23.15
2023-03-01T18:11:54.466Z,20.63
2023-03-01T18:14:30.028Z,26.02
2023-03-01T18:17:06.602Z,34.33
2023-03-01T18:19:41.579Z,45.30
2023-03-01T18:22:14.869Z,65.57
2023-03-01T18:24:47.312Z,43.55
2023-03-01T18:27:20.346Z,34.53
2023-03-01T18:29:53.880Z,33.10
2023-03-01T18:32:28.025Z,32.67
2023-03-01T18:35:00.704Z,32.45
2023-03-01T18:37:33.544Z,36.58
2023-03-01T18:40:07.363Z,39.35
2023-03-01T18:42:40.321Z,39.55
2023-03-01T18:45:14.921Z,39.08
2023-03-01T18:47:50.397Z,31.58
2023-03-01T18:50:23.396Z,26.80
2023-03-01T18:52:56.364Z,26.48
2023-03-01T18:55:28.909Z,27.70
2023-03-01T18:58:01.955Z,28.00
2023-03-01T19:00:34.731Z,36.78
2023-03-01T19:03:07.601Z,24.58
2023-03-01T19:05:41.494Z,24.92
2023-03-01T19:08:14.471Z,23.60
2023-03-01T19:10:46.999Z,25.38
2023-03-01T19:13:19.839Z,29.40
2023-03-01T19:15:52.729Z,35.92
2023-03-01T19:18:25.865Z,34.65
2023-03-01T19:21:03.938Z,32.58
2023-03-01T19:23:38.797Z,40.03
2023-03-01T19:26:12.982Z,39.35
2023-03-01T19:28:46.520Z,48.67
2023-03-01T19:31:24.542Z,60.53
2023-03-01T19:34:16.389Z,63.25
2023-03-01T19:36:48.928Z,52.63
2023-03-01T19:39:21.788Z,55.63
2023-03-01T19:41:54.392Z,73.22
2023-03-01T19:44:28.416Z,53.40
2023-03-01T19:47:00.962Z,52.60
2023-03-01T19:49:33.896Z,52.33
2023-03-01T19:52:06.437Z,50.20
2023-03-01T19:54:39.372Z,49.67
2023-03-01T19:57:12.153Z,35.53
2023-03-01T19:59:45.008Z,37.15
2023-03-01T20:02:17.847Z,36.35
2023-03-01T20:04:50.840Z,38.40
2023-03-01T20:07:23.311Z,36.92
2023-03-01T20:09:56.301Z,47.10
2023-03-01T20:12:28.825Z,43.28
2023-03-01T20:15:01.799Z,42.03
2023-03-01T20:17:34.402Z,57.90
2023-03-01T20:20:07.654Z,72.18
2023-03-01T20:22:40.550Z,53.88
2023-03-01T20:25:13.847Z,52.67
2023-03-01T20:27:47.782Z,57.55
2023-03-01T20:30:20.752Z,60.75
2023-03-01T20:32:53.463Z,59.83
2023-03-01T20:35:26.562Z,61.67
2023-03-01T20:37:59.409Z,72.57
2023-03-01T20:40:32.354Z,83.18
2023-03-01T20:43:04.869Z,71.82
2023-03-01T20:45:38.305Z,55.92
2023-03-01T20:48:10.790Z,50.08
2023-03-01T20:50:43.722Z,44.70
2023-03-01T20:53:16.367Z,58.08
2023-03-01T20:55:49.466Z,56.10
2023-03-01T20:58:21.967Z,45.20
2023-03-01T21:00:54.939Z,41.03
2023-03-01T21:03:27.718Z,38.90
2023-03-01T21:06:02.434Z,37.72
2023-03-01T21:08:35.590Z,43.78
2023-03-01T21:11:09.217Z,45.53
2023-03-01T21:13:42.068Z,51.08
2023-03-01T21:16:15.890Z,47.78
2023-03-01T21:18:49.338Z,48.20
2023-03-01T21:21:23.135Z,40.45
2023-03-01T21:23:56.042Z,45.30
2023-03-01T21:26:29.232Z,43.70
2023-03-01T21:29:01.896Z,50.00
2023-03-01T21:31:36.178Z,46.78
2023-03-01T21:34:08.983Z,49.25
2023-03-01T21:36:42.279Z,47.85
2023-03-01T21:39:15.187Z,47.40
2023-03-01T21:41:49.911Z,44.92
2023-03-01T21:44:23.553Z,47.05
2023-03-01T21:46:56.546Z,47.70
2023-03-01T21:49:29.147Z,40.33
2023-03-01T21:52:02.067Z,41.63
2023-03-01T21:54:35.132Z,42.40
2023-03-01T21:57:08.072Z,41.03
2023-03-01T21:59:40.961Z,42.78
2023-03-01T22:02:14.801Z,42.60
2023-03-01T22:04:47.388Z,44.80
2023-03-01T22:07:20.220Z,43.17
2023-03-01T22:09:52.750Z,41.55
2023-03-01T22:12:26.195Z,39.90
2023-03-01T22:14:58.708Z,40.83
2023-03-01T22:17:31.621Z,41.10
2023-03-01T22:20:04.272Z,38.33
2023-03-01T22:22:37.535Z,40.95
2023-03-01T22:25:10.631Z,38.85
2023-03-01T22:27:43.435Z,41.17
2023-03-01T22:30:16.150Z,39.20
2023-03-01T22:32:49.376Z,37.50
2023-03-01T22:35:21.995Z,35.25
2023-03-01T22:37:54.867Z,37.13
2023-03-01T22:40:27.472Z,39.60
2023-03-01T22:43:00.321Z,49.65
2023-03-01T22:45:33.233Z,38.78
2023-03-01T22:48:06.292Z,43.22
2023-03-01T22:50:42.182Z,41.33
2023-03-01T22:53:15.141Z,43.38
2023-03-01T22:55:47.776Z,41.15
2023-03-01T22:58:20.624Z,38.65
2023-03-01T23:00:53.121Z,35.70
2023-03-01T23:03:26.112Z,30.70
2023-03-01T23:05:58.654Z,30.20
2023-03-01T23:08:31.517Z,30.73
2023-03-01T23:11:04.668Z,31.90
2023-03-01T23:13:37.704Z,32.38
2023-03-01T23:16:11.001Z,29.92
2023-03-01T23:18:44.254Z,29.45
2023-03-01T23:21:19.176Z,30.50
2023-03-01T23:23:52.361Z,30.20
2023-03-01T23:26:28.634Z,29.42
2023-03-01T23:29:01.578Z,30.63
2023-03-01T23:31:34.965Z,30.58
2023-03-01T23:34:08.176Z,28.52
2023-03-01T23:36:45.236Z,26.58
2023-03-01T23:39:18.314Z,24.33
2023-03-01T23:41:50.868Z,22.40
2023-03-01T23:44:23.790Z,22.67
2023-03-01T23:46:56.362Z,25.15
2023-03-01T23:49:29.296Z,24.48
2023-03-01T23:52:02.205Z,24.58
2023-03-01T23:54:35.111Z,25.48
2023-03-01T23:57:07.759Z,23.20
2023-03-01T23:59:41.397Z,26.70
